createdAt,value
2022-10-11T00:01:13.724Z,9.63
2022-10-11T00:03:42.494Z,11.07
2022-10-11T00:06:11.334Z,8.83
2022-10-11T00:08:39.991Z,11.00
2022-10-11T00:11:09.989Z,9.80
2022-10-11T00:13:38.692Z,9.40
2022-10-11T00:16:14.258Z,11.10
2022-10-11T00:18:43.888Z,9.60
2022-10-11T00:21:18.576Z,10.43
2022-10-11T00:23:47.263Z,8.80
2022-10-11T00:26:16.331Z,7.33
2022-10-11T00:28:45.083Z,16.00
2022-10-11T00:31:17.112Z,13.60
2022-10-11T00:33:46.003Z,9.50
2022-10-11T00:36:17.084Z,12.57
2022-10-11T00:38:46.734Z,8.43
2022-10-11T00:41:16.477Z,8.30
2022-10-11T00:43:45.679Z,8.40
2022-10-11T00:46:33.477Z,7.80
2022-10-11T00:49:08.565Z,9.73
2022-10-11T00:51:49.472Z,11.63
2022-10-11T00:54:24.206Z,11.83
2022-10-11T00:57:00.785Z,9.13
2022-10-11T00:59:36.058Z,13.37
2022-10-11T01:02:07.927Z,13.23
2022-10-11T01:04:36.770Z,11.67
2022-10-11T01:07:05.703Z,11.77
2022-10-11T01:09:35.346Z,10.67
2022-10-11T01:12:13.399Z,12.70
2022-10-11T01:15:16.754Z,13.40
2022-10-11T01:18:00.804Z,15.13
2022-10-11T01:20:41.703Z,11.00
2022-10-11T01:24:08.701Z,14.13
2022-10-11T01:27:38.101Z,13.30
2022-10-11T01:30:25.631Z,14.13
2022-10-11T01:33:19.902Z,11.00
2022-10-11T01:36:06.569Z,13.73
2022-10-11T01:38:43.128Z,19.90
2022-10-11T01:41:18.367Z,14.40
2022-10-11T01:43:49.736Z,14.63
2022-10-11T01:46:21.602Z,13.03
2022-10-11T01:48:52.800Z,15.33
2022-10-11T01:51:24.820Z,14.80
2022-10-11T01:54:17.887Z,12.03
2022-10-11T01:57:15.631Z,10.17
2022-10-11T02:00:00.193Z,16.40
2022-10-11T02:03:00.229Z,11.57
2022-10-11T02:05:39.968Z,12.13
2022-10-11T02:08:19.527Z,14.13
2022-10-11T02:10:55.745Z,13.50
2022-10-11T02:13:33.359Z,11.93
2022-10-11T02:16:11.045Z,15.77
2022-10-11T02:18:46.876Z,11.77
2022-10-11T02:21:20.798Z,14.57
2022-10-11T02:23:56.551Z,11.27
2022-10-11T02:26:31.805Z,16.13
2022-10-11T02:29:06.355Z,16.07
2022-10-11T02:31:37.728Z,12.13
2022-10-11T02:34:16.280Z,16.23
2022-10-11T02:36:57.140Z,11.63
2022-10-11T02:39:32.727Z,14.47
2022-10-11T02:42:08.398Z,14.87
2022-10-11T02:44:44.230Z,15.00
2022-10-11T02:47:14.056Z,12.83
2022-10-11T02:49:44.134Z,16.93
2022-10-11T02:52:12.787Z,20.17
2022-10-11T02:54:41.417Z,16.13
2022-10-11T02:57:10.108Z,18.37
2022-10-11T02:59:38.881Z,19.27
2022-10-11T03:02:07.838Z,21.70
2022-10-11T03:04:36.813Z,22.43
2022-10-11T03:07:07.057Z,16.13
2022-10-11T03:09:35.739Z,18.47
2022-10-11T03:12:04.552Z,14.20
2022-10-11T03:14:33.301Z,12.77
2022-10-11T03:17:23.658Z,14.60
2022-10-11T03:19:50.844Z,10.47
2022-10-11T03:22:20.882Z,10.20
2022-10-11T03:24:49.590Z,12.57
2022-10-11T03:27:18.554Z,10.50
2022-10-11T03:29:47.212Z,10.70
2022-10-11T03:32:15.940Z,11.60
2022-10-11T03:34:44.542Z,8.77
2022-10-11T03:37:13.176Z,13.07
2022-10-11T03:39:43.283Z,9.80
2022-10-11T03:42:12.055Z,10.27
2022-10-11T03:44:41.788Z,7.10
2022-10-11T03:47:10.701Z,9.10
2022-10-11T03:49:43.392Z,10.13
2022-10-11T03:52:12.889Z,9.20
2022-10-11T03:54:43.176Z,5.10
2022-10-11T03:57:11.855Z,8.13
2022-10-11T03:59:40.496Z,7.47
2022-10-11T04:02:09.244Z,9.23
2022-10-11T04:04:37.974Z,7.40
2022-10-11T04:07:06.694Z,8.53
2022-10-11T04:09:35.619Z,7.20
2022-10-11T04:12:06.031Z,10.67
2022-10-11T04:14:34.713Z,7.40
2022-10-11T04:17:03.262Z,7.93
2022-10-11T04:19:31.848Z,16.60
2022-10-11T04:22:00.479Z,12.97
2022-10-11T04:24:29.274Z,12.17
2022-10-11T04:26:58.003Z,19.27
2022-10-11T04:29:32.409Z,15.07
2022-10-11T04:32:01.440Z,11.87
2022-10-11T04:34:30.168Z,10.77
2022-10-11T04:36:59.013Z,12.40
2022-10-11T04:39:28.561Z,11.70
2022-10-11T04:41:57.110Z,10.53
2022-10-11T04:44:27.408Z,9.07
2022-10-11T04:46:56.098Z,13.90
2022-10-11T04:49:25.294Z,9.40
2022-10-11T04:51:54.254Z,13.00
2022-10-11T04:54:23.208Z,8.00
2022-10-11T04:56:51.926Z,8.83
2022-10-11T04:59:50.003Z,9.83
2022-10-11T05:02:19.220Z,9.33
2022-10-11T05:04:48.076Z,11.67
2022-10-11T05:07:16.771Z,12.13
2022-10-11T05:09:45.521Z,10.50
2022-10-11T05:12:14.258Z,13.93
2022-10-11T05:14:42.823Z,11.30
2022-10-11T05:17:12.839Z,13.87
2022-10-11T05:19:41.471Z,12.77
2022-10-11T05:22:10.342Z,9.97
2022-10-11T05:24:39.069Z,5.90
2022-10-11T05:27:07.883Z,8.80
2022-10-11T05:29:36.522Z,10.80
2022-10-11T05:32:05.624Z,12.00
2022-10-11T05:34:35.617Z,12.70
2022-10-11T05:37:04.170Z,10.37
2022-10-11T05:39:32.984Z,10.07
2022-10-11T05:42:01.636Z,8.37
2022-10-11T05:44:30.227Z,9.20
2022-10-11T05:46:58.826Z,11.10
2022-10-11T05:49:27.779Z,11.30
2022-10-11T05:51:57.869Z,9.27
2022-10-11T05:54:26.618Z,11.83
2022-10-11T05:56:55.237Z,9.27
2022-10-11T05:59:23.833Z,9.40
2022-10-11T06:01:52.661Z,12.80
2022-10-11T06:04:21.409Z,10.30
2022-10-11T06:06:49.966Z,12.23
2022-10-11T06:09:20.060Z,10.10
2022-10-11T06:11:49.498Z,8.07
2022-10-11T06:14:18.367Z,8.53
2022-10-11T06:16:47.013Z,6.43
2022-10-11T06:19:15.737Z,10.93
2022-10-11T06:21:45.317Z,9.53
2022-10-11T06:24:14.062Z,10.80
2022-10-11T06:26:44.040Z,8.97
2022-10-11T06:29:12.668Z,8.83
2022-10-11T06:31:41.288Z,10.57
2022-10-11T06:34:09.913Z,15.70
2022-10-11T06:36:38.546Z,8.93
2022-10-11T06:39:07.528Z,7.40
2022-10-11T06:41:36.454Z,13.43
2022-10-11T06:44:09.695Z,10.93
2022-10-11T06:46:42.836Z,9.23
2022-10-11T06:49:12.178Z,11.27
2022-10-11T06:51:40.887Z,11.03
2022-10-11T06:54:09.465Z,12.00
2022-10-11T06:56:38.420Z,8.67
2022-10-11T06:59:08.705Z,14.63
2022-10-11T07:01:37.347Z,9.47
2022-10-11T07:04:06.678Z,10.37
2022-10-11T07:06:40.449Z,10.43
2022-10-11T07:09:09.926Z,8.37
2022-10-11T07:11:38.793Z,9.40
2022-10-11T07:14:11.489Z,13.53
2022-10-11T07:16:40.075Z,17.63
2022-10-11T07:19:08.757Z,11.93
2022-10-11T07:21:37.575Z,11.07
2022-10-11T07:24:07.369Z,10.70
2022-10-11T07:26:38.899Z,13.47
2022-10-11T07:29:11.464Z,12.23
2022-10-11T07:31:42.929Z,9.40
2022-10-11T07:34:11.895Z,11.00
2022-10-11T07:36:40.802Z,12.00
2022-10-11T07:39:10.111Z,12.80
2022-10-11T07:41:44.565Z,11.93
2022-10-11T07:44:15.081Z,15.00
2022-10-11T07:46:43.852Z,15.03
2022-10-11T07:49:12.451Z,12.63
2022-10-11T07:51:41.046Z,18.97
2022-10-11T07:54:09.887Z,14.03
2022-10-11T07:56:40.245Z,13.67
2022-10-11T07:59:08.976Z,15.47
2022-10-11T08:01:39.143Z,8.80
2022-10-11T08:04:07.887Z,11.37
2022-10-11T08:06:37.378Z,13.63
2022-10-11T08:09:06.762Z,13.10
2022-10-11T08:11:38.471Z,10.57
2022-10-11T08:14:11.328Z,10.73
2022-10-11T08:16:41.699Z,14.30
2022-10-11T08:19:11.885Z,11.33
2022-10-11T08:21:40.699Z,14.73
2022-10-11T08:24:10.114Z,14.77
2022-10-11T08:26:38.750Z,16.77
2022-10-11T08:29:07.571Z,10.60
2022-10-11T08:31:36.770Z,14.23
2022-10-11T08:34:06.905Z,14.03
2022-10-11T08:36:35.747Z,17.33
2022-10-11T08:39:05.349Z,15.30
2022-10-11T08:41:43.165Z,15.80
2022-10-11T08:44:58.699Z,12.43
2022-10-11T08:47:35.102Z,13.23
2022-10-11T08:50:08.918Z,15.83
2022-10-11T08:52:49.773Z,13.80
2022-10-11T08:55:27.424Z,12.53
2022-10-11T08:57:57.965Z,9.57
2022-10-11T09:00:34.157Z,12.07
2022-10-11T09:03:22.855Z,17.23
2022-10-11T09:06:15.026Z,13.33
2022-10-11T09:09:06.185Z,14.20
2022-10-11T09:11:51.500Z,10.90
2022-10-11T09:15:24.905Z,14.97
2022-10-11T09:18:17.580Z,11.27
2022-10-11T09:21:03.140Z,14.53
2022-10-11T09:23:57.581Z,12.77
2022-10-11T09:26:33.064Z,9.73
2022-10-11T09:29:16.479Z,7.27
2022-10-11T09:31:53.314Z,9.70
2022-10-11T09:34:27.388Z,13.03
2022-10-11T09:37:12.610Z,10.83
2022-10-11T09:39:49.180Z,12.20
2022-10-11T09:42:17.795Z,9.27
2022-10-11T09:44:50.786Z,7.40
2022-10-11T09:47:25.782Z,7.37
2022-10-11T09:50:01.679Z,11.03
2022-10-11T09:52:32.021Z,12.30
2022-10-11T09:55:03.577Z,8.83
2022-10-11T09:57:37.077Z,11.33
2022-10-11T10:00:20.854Z,11.73
2022-10-11T10:02:52.344Z,7.63
2022-10-11T10:05:23.943Z,8.47
2022-10-11T10:08:22.539Z,8.57
2022-10-11T10:11:02.370Z,12.67
2022-10-11T10:13:43.314Z,10.77
2022-10-11T10:16:27.235Z,10.93
2022-10-11T10:18:59.726Z,13.00
2022-10-11T10:21:32.789Z,14.10
2022-10-11T10:24:08.757Z,8.77
2022-10-11T10:26:37.488Z,8.70
2022-10-11T10:29:18.712Z,6.70
2022-10-11T10:35:13.547Z,8.43
2022-10-11T10:37:49.905Z,11.27
2022-10-11T10:40:27.041Z,10.30
2022-10-11T10:42:55.772Z,10.07
2022-10-11T10:45:35.193Z,13.30
2022-10-11T10:48:27.572Z,9.07
2022-10-11T10:51:05.968Z,6.80
2022-10-11T10:53:43.694Z,8.43
2022-10-11T10:56:20.646Z,9.73
2022-10-11T10:59:15.360Z,8.23
2022-10-11T11:02:11.181Z,7.97
2022-10-11T11:05:02.626Z,10.00
2022-10-11T11:07:42.061Z,9.50
2022-10-11T11:10:20.418Z,8.43
2022-10-11T11:13:05.107Z,7.97
2022-10-11T11:15:44.628Z,6.87
2022-10-11T11:18:30.285Z,11.47
2022-10-11T11:21:23.680Z,9.60
2022-10-11T11:24:09.614Z,6.53
2022-10-11T11:26:49.042Z,8.73
2022-10-11T11:29:39.528Z,10.20
2022-10-11T11:32:22.809Z,10.40
2022-10-11T11:35:01.875Z,11.23
2022-10-11T11:37:35.826Z,10.37
2022-10-11T11:40:15.223Z,8.57
2022-10-11T11:42:50.301Z,9.43
2022-10-11T11:45:26.107Z,12.03
2022-10-11T11:48:03.773Z,9.40
2022-10-11T11:50:40.244Z,6.43
2022-10-11T11:53:17.563Z,9.57
2022-10-11T11:55:54.599Z,6.70
2022-10-11T11:58:37.117Z,10.20
2022-10-11T12:01:30.930Z,6.43
2022-10-11T12:04:07.108Z,10.07
2022-10-11T12:06:52.399Z,8.40
2022-10-11T12:09:28.176Z,11.77
2022-10-11T12:12:01.425Z,11.37
2022-10-11T12:14:41.295Z,7.73
2022-10-11T12:17:18.894Z,5.47
2022-10-11T12:20:24.227Z,9.13
2022-10-11T12:22:58.400Z,8.70
2022-10-11T12:26:19.249Z,8.93
2022-10-11T12:29:46.661Z,14.17
2022-10-11T12:32:57.470Z,5.83
2022-10-11T12:36:07.343Z,10.33
2022-10-11T12:38:40.171Z,9.43
2022-10-11T12:41:53.661Z,8.63
2022-10-11T12:44:26.358Z,6.50
2022-10-11T12:47:34.083Z,8.23
2022-10-11T12:50:20.933Z,9.00
2022-10-11T12:53:03.025Z,8.37
2022-10-11T12:55:51.403Z,11.10
2022-10-11T12:58:40.547Z,7.17
2022-10-11T13:01:26.689Z,6.77
2022-10-11T13:04:08.105Z,5.87
2022-10-11T13:06:48.976Z,8.33
2022-10-11T13:09:28.661Z,4.97
2022-10-11T13:12:04.249Z,7.03
2022-10-11T13:14:38.435Z,10.13
2022-10-11T13:17:17.959Z,7.43
2022-10-11T13:19:47.052Z,9.43
2022-10-11T13:22:21.755Z,5.53
2022-10-11T13:24:50.702Z,9.40
2022-10-11T13:27:24.513Z,7.20
2022-10-11T13:29:56.781Z,8.17
2022-10-11T13:32:28.684Z,11.07
2022-10-11T13:35:01.793Z,7.50
2022-10-11T13:37:42.169Z,7.60
2022-10-11T13:40:16.051Z,7.83
2022-10-11T13:42:45.463Z,8.53
2022-10-11T13:45:17.490Z,14.37
2022-10-11T13:47:48.328Z,9.43
2022-10-11T13:50:31.918Z,9.33
2022-10-11T13:53:05.229Z,10.33
2022-10-11T13:55:37.451Z,4.50
2022-10-11T13:58:19.073Z,6.27
2022-10-11T14:00:57.248Z,9.07
2022-10-11T14:03:40.152Z,10.07
2022-10-11T14:06:09.960Z,6.57
2022-10-11T14:08:46.065Z,6.37
2022-10-11T14:11:16.933Z,15.33
2022-10-11T14:13:47.914Z,12.00
2022-10-11T14:16:32.099Z,5.20
2022-10-11T14:19:12.762Z,9.83
2022-10-11T14:21:54.046Z,9.07
2022-10-11T14:24:24.773Z,12.67
2022-10-11T14:26:57.725Z,16.00
2022-10-11T14:29:30.727Z,8.93
2022-10-11T14:32:05.850Z,13.17
2022-10-11T14:34:36.490Z,8.10
2022-10-11T14:37:05.416Z,7.70
2022-10-11T14:39:35.629Z,7.43
2022-10-11T14:42:04.915Z,8.67
2022-10-11T14:44:34.484Z,6.07
2022-10-11T14:47:06.673Z,9.80
2022-10-11T14:49:38.506Z,10.87
2022-10-11T14:52:08.987Z,6.93
2022-10-11T14:54:39.482Z,9.30
2022-10-11T14:57:13.706Z,8.23
2022-10-11T14:59:42.552Z,10.83
2022-10-11T15:02:13.680Z,10.60
2022-10-11T15:04:42.337Z,11.67
2022-10-11T15:07:13.991Z,12.83
2022-10-11T15:09:44.366Z,8.63
2022-10-11T15:12:13.042Z,7.37
2022-10-11T15:14:41.766Z,15.53
2022-10-11T15:17:12.931Z,15.60
2022-10-11T15:19:41.624Z,20.83
2022-10-11T15:22:10.463Z,24.13
2022-10-11T15:24:39.352Z,26.20
2022-10-11T15:27:10.519Z,17.37
2022-10-11T15:29:39.176Z,16.63
2022-10-11T15:32:08.446Z,14.80
2022-10-11T15:34:37.172Z,12.43
2022-10-11T15:37:05.755Z,10.70
2022-10-11T15:39:34.438Z,9.90
2022-10-11T15:42:03.213Z,20.40
2022-10-11T15:44:34.650Z,33.67
2022-10-11T15:47:05.458Z,13.20
2022-10-11T15:49:37.211Z,14.13
2022-10-11T15:52:07.427Z,9.80
2022-10-11T15:54:37.175Z,10.60
2022-10-11T15:57:06.863Z,10.97
2022-10-11T15:59:36.962Z,15.93
2022-10-11T16:02:06.461Z,12.17
2022-10-11T16:04:35.376Z,13.03
2022-10-11T16:07:04.483Z,11.87
2022-10-11T16:09:33.573Z,12.07
2022-10-11T16:12:02.366Z,13.47
2022-10-11T16:14:31.603Z,16.33
2022-10-11T16:17:03.424Z,14.67
2022-10-11T16:19:32.489Z,14.00
2022-10-11T16:22:01.305Z,18.47
2022-10-11T16:24:29.998Z,34.13
2022-10-11T16:26:58.650Z,20.77
2022-10-11T16:29:27.835Z,13.17
2022-10-11T16:31:56.501Z,10.10
2022-10-11T16:34:26.940Z,9.97
2022-10-11T16:36:55.550Z,15.90
2022-10-11T16:39:24.404Z,15.80
2022-10-11T16:41:53.156Z,10.70
2022-10-11T16:44:25.361Z,13.13
2022-10-11T16:46:54.086Z,22.03
2022-10-11T16:49:26.997Z,18.67
2022-10-11T16:51:59.344Z,19.20
2022-10-11T16:54:30.329Z,22.73
2022-10-11T16:57:01.566Z,17.43
2022-10-11T16:59:33.096Z,14.93
2022-10-11T17:02:05.132Z,13.80
2022-10-11T17:04:36.601Z,15.37
2022-10-11T17:07:05.344Z,15.57
2022-10-11T17:09:34.172Z,14.23
2022-10-11T17:12:02.887Z,13.70
2022-10-11T17:14:32.298Z,15.73
2022-10-11T17:17:01.329Z,23.33
2022-10-11T17:19:34.460Z,25.97
2022-10-11T17:22:05.539Z,34.33
2022-10-11T17:24:38.537Z,24.70
2022-10-11T17:27:10.301Z,23.27
2022-10-11T17:29:40.738Z,20.20
2022-10-11T17:32:11.180Z,20.30
2022-10-11T17:34:40.797Z,18.20
2022-10-11T17:37:12.941Z,15.47
2022-10-11T17:39:42.647Z,17.30
2022-10-11T17:42:11.974Z,15.23
2022-10-11T17:44:43.437Z,15.00
2022-10-11T17:47:16.073Z,16.80
2022-10-11T17:49:46.066Z,19.50
2022-10-11T17:52:16.693Z,13.00
2022-10-11T17:54:47.307Z,16.10
2022-10-11T17:57:16.802Z,17.80
2022-10-11T17:59:46.471Z,13.97
2022-10-11T18:02:15.303Z,16.83
2022-10-11T18:04:44.919Z,15.10
2022-10-11T18:07:15.589Z,13.50
2022-10-11T18:09:44.895Z,18.47
2022-10-11T18:12:15.220Z,13.10
2022-10-11T18:14:44.698Z,14.10
2022-10-11T18:17:13.720Z,14.13
2022-10-11T18:19:42.969Z,13.30
2022-10-11T18:22:12.412Z,16.30
2022-10-11T18:24:43.143Z,17.47
2022-10-11T18:27:12.380Z,13.63
2022-10-11T18:29:41.598Z,11.00
2022-10-11T18:32:10.530Z,14.43
2022-10-11T18:34:39.379Z,10.23
2022-10-11T18:37:08.732Z,12.13
2022-10-11T18:39:37.714Z,11.00
2022-10-11T18:42:08.230Z,14.27
2022-10-11T18:44:37.247Z,11.77
2022-10-11T18:47:05.952Z,13.17
2022-10-11T18:49:34.566Z,10.13
2022-10-11T18:52:03.163Z,8.27
2022-10-11T18:54:32.150Z,8.37
2022-10-11T18:57:00.788Z,10.87
2022-10-11T18:59:33.346Z,10.33
2022-10-11T19:02:04.128Z,8.93
2022-10-11T19:04:34.404Z,13.67
2022-10-11T19:07:03.346Z,11.13
2022-10-11T19:09:32.406Z,13.50
2022-10-11T19:12:01.193Z,11.80
2022-10-11T19:14:31.615Z,10.60
2022-10-11T19:17:00.375Z,7.87
2022-10-11T19:19:30.948Z,12.07
2022-10-11T19:22:00.443Z,9.90
2022-10-11T19:24:31.511Z,7.90
2022-10-11T19:27:02.724Z,7.93
2022-10-11T19:29:34.538Z,6.87
2022-10-11T19:32:04.585Z,7.60
2022-10-11T19:34:33.287Z,8.07
2022-10-11T19:37:03.476Z,9.93
2022-10-11T19:39:32.641Z,7.80
2022-10-11T19:42:02.083Z,9.93
2022-10-11T19:44:35.789Z,5.73
2022-10-11T19:47:07.650Z,21.93
2022-10-11T19:49:36.308Z,39.80
2022-10-11T19:52:05.157Z,37.93
2022-10-11T19:54:34.008Z,21.13
2022-10-11T19:57:02.702Z,18.57
2022-10-11T19:59:32.830Z,13.47
2022-10-11T20:02:01.676Z,9.10
2022-10-11T20:07:18.896Z,6.60
2022-10-11T20:09:47.494Z,7.13
2022-10-11T20:12:16.198Z,4.73
2022-10-11T20:14:46.288Z,6.00
2022-10-11T20:17:16.187Z,8.33
2022-10-11T20:19:44.837Z,6.33
2022-10-11T20:22:13.569Z,7.10
2022-10-11T20:24:42.109Z,6.47
2022-10-11T20:27:10.751Z,8.83
2022-10-11T20:29:39.363Z,10.07
2022-10-11T20:32:09.348Z,6.37
2022-10-11T20:34:39.523Z,5.27
2022-10-11T20:37:08.144Z,9.27
2022-10-11T20:39:37.037Z,5.43
2022-10-11T20:42:05.836Z,8.13
2022-10-11T20:44:34.549Z,5.77
2022-10-11T20:47:04.343Z,5.03
2022-10-11T20:49:34.678Z,6.20
2022-10-11T20:52:03.256Z,6.83
2022-10-11T20:54:34.226Z,5.07
2022-10-11T20:57:03.100Z,7.37
2022-10-11T20:59:31.774Z,8.17
2022-10-11T21:02:00.418Z,7.23
2022-10-11T21:04:29.203Z,7.50
2022-10-11T21:06:59.225Z,4.87
2022-10-11T21:09:27.860Z,6.60
2022-10-11T21:11:56.572Z,8.83
2022-10-11T21:14:25.370Z,6.23
2022-10-11T21:16:54.018Z,8.63
2022-10-11T21:19:22.605Z,4.90
2022-10-11T21:21:53.855Z,5.83
2022-10-11T21:24:24.390Z,7.67
2022-10-11T21:26:56.941Z,8.40
2022-10-11T21:29:28.412Z,10.07
2022-10-11T21:31:57.036Z,8.77
2022-10-11T21:34:25.727Z,5.60
2022-10-11T21:36:54.323Z,7.13
2022-10-11T21:39:24.492Z,8.00
2022-10-11T21:41:53.180Z,8.70
2022-10-11T21:44:21.837Z,4.60
2022-10-11T21:47:07.366Z,8.63
2022-10-11T21:49:36.166Z,6.27
2022-10-11T21:52:05.953Z,8.30
2022-10-11T21:54:36.119Z,6.23
2022-10-11T21:57:04.808Z,7.07
2022-10-11T21:59:33.546Z,5.17
2022-10-11T22:02:02.578Z,7.70
2022-10-11T22:04:31.455Z,5.23
2022-10-11T22:07:00.317Z,7.47
2022-10-11T22:09:29.904Z,6.30
2022-10-11T22:12:00.046Z,7.40
2022-10-11T22:14:29.593Z,6.57
2022-10-11T22:16:58.625Z,8.53
2022-10-11T22:19:27.370Z,9.37
2022-10-11T22:21:56.006Z,4.90
2022-10-11T22:24:25.755Z,5.83
2022-10-11T22:26:54.392Z,8.37
2022-10-11T22:29:24.473Z,6.90
2022-10-11T22:31:53.061Z,5.80
2022-10-11T22:34:21.683Z,4.97
2022-10-11T22:36:50.317Z,7.30
2022-10-11T22:39:19.054Z,6.10
2022-10-11T22:41:47.764Z,6.17
2022-10-11T22:44:16.880Z,6.17
2022-10-11T22:46:46.952Z,6.00
2022-10-11T22:49:15.616Z,7.50
2022-10-11T22:51:44.484Z,5.90
2022-10-11T22:54:13.564Z,6.93
2022-10-11T22:56:42.232Z,4.93
2022-10-11T22:59:11.054Z,7.60
2022-10-11T23:01:39.666Z,8.23
2022-10-11T23:04:09.688Z,4.80
2022-10-11T23:06:38.361Z,6.00
2022-10-11T23:09:07.268Z,5.33
2022-10-11T23:11:35.894Z,4.80
2022-10-11T23:14:04.671Z,5.67
2022-10-11T23:16:33.436Z,5.37
2022-10-11T23:19:04.240Z,4.20
2022-10-11T23:21:34.567Z,5.30
2022-10-11T23:24:03.124Z,8.23
2022-10-11T23:26:31.712Z,4.40
2022-10-11T23:29:00.354Z,4.17
2022-10-11T23:31:28.992Z,6.17
2022-10-11T23:33:57.643Z,5.97
2022-10-11T23:36:27.616Z,5.63
2022-10-11T23:39:00.239Z,8.00
2022-10-11T23:41:30.911Z,5.43
2022-10-11T23:43:59.820Z,4.63
2022-10-11T23:46:28.449Z,5.07
2022-10-11T23:48:57.107Z,3.97
2022-10-11T23:51:25.810Z,5.63
2022-10-11T23:53:54.522Z,6.53
2022-10-11T23:56:24.715Z,10.63
2022-10-11T23:58:53.486Z,4.60
